Edmonton Namao Alta., Canada
Current Conditions -  °F | °C
As of 1:00 PM on Friday 21 Nov 2014 (Local Time) from CYXD Reporting Station
Few Clouds Few Clouds  
Wind Chill: 43°   Ceiling: Unl
Heat Index: 43°   Visibility: 9mi
Dew Point: 36°   Wind: 3mph
Humidity: 76%   Direction: 350°N
Pressure: 29.52"   Gusts: NA
Location:  53.61°N, 113.46°W
Report Text: CYXD 212000Z AUTO 35003KT 9SM FEW066 FEW074 06/02 A2952 RMKSLP014
Loading
Personal Weather Stations






























Interactive Weather Map New forecast layout! Learn more

10-Day Weather Forecast

Advertisements
Track Severe Weather on mobile